Time;durP1;ratioP1;P1;durP2;ratioP2;P2;SDS_P1;SDS_P2;PMS_P1;PMS_P2;Temp;Humidity;BMP_temperature;BMP_pressure;BME280_temperature;BME280_humidity;BME280_pressure;Samples;Min_cycle;Max_cycle;Signal;HPM_P1;HPM_P2
2023/03/07 00:00:31;;;;;;;11.10;7.90;;;;;;;8.89;50.89;98634.65;104613;1256;72983;-66
2023/03/07 00:02:59;;;;;;;11.60;8.20;;;;;;;8.84;50.85;98632.42;104525;1272;60916;-67
2023/03/07 00:05:28;;;;;;;10.00;8.00;;;;;;;8.83;50.80;98629.34;104571;1267;60886;-66
2023/03/07 00:07:57;;;;;;;12.10;8.20;;;;;;;8.81;51.04;98626.16;104581;1256;72671;-66
2023/03/07 00:10:26;;;;;;;10.60;8.10;;;;;;;8.79;51.03;98622.58;104652;1256;68826;-66
2023/03/07 00:12:57;;;;;;;10.30;8.40;;;;;;;8.75;50.64;98623.64;104438;1256;73228;-66
2023/03/07 00:15:25;;;;;;;10.70;8.00;;;;;;;8.68;51.13;98621.20;104562;1254;60886;-66
2023/03/07 00:17:54;;;;;;;11.30;8.50;;;;;;;8.65;51.16;98622.05;104560;1272;60485;-66
2023/03/07 00:20:23;;;;;;;9.30;7.90;;;;;;;8.60;51.18;98618.14;104535;1257;72522;-67
2023/03/07 00:22:51;;;;;;;11.80;8.90;;;;;;;8.54;51.53;98616.52;104563;1256;68419;-67
2023/03/07 00:25:19;;;;;;;11.30;8.70;;;;;;;8.52;52.01;98615.54;104655;1255;73834;-66
2023/03/07 00:27:48;;;;;;;10.10;8.00;;;;;;;8.52;52.07;98609.44;104563;1256;60910;-67
2023/03/07 00:30:16;;;;;;;11.20;7.90;;;;;;;8.57;52.59;98610.58;104737;1257;60892;-67
2023/03/07 00:32:45;;;;;;;10.00;8.30;;;;;;;8.61;52.84;98604.64;104506;1257;73896;-68
2023/03/07 00:35:13;;;;;;;11.60;8.70;;;;;;;8.61;52.79;98597.48;104551;1256;70145;-67
2023/03/07 00:37:41;;;;;;;13.40;9.00;;;;;;;8.63;52.72;98601.57;104537;1254;72262;-67
2023/03/07 00:40:14;;;;;;;9.00;7.60;;;;;;;8.63;52.63;98596.30;104585;1252;60914;-67
2023/03/07 00:42:43;;;;;;;10.80;8.40;;;;;;;8.65;52.58;98590.13;104592;1259;60535;-67
2023/03/07 00:45:12;;;;;;;10.90;7.80;;;;;;;8.69;52.46;98591.30;104528;1269;72072;-67
2023/03/07 00:47:40;;;;;;;11.30;8.10;;;;;;;8.72;52.28;98591.98;104532;1263;68048;-67
2023/03/07 00:50:09;;;;;;;10.10;8.30;;;;;;;8.75;52.25;98586.60;104608;1254;71655;-68
2023/03/07 00:52:38;;;;;;;11.00;8.30;;;;;;;8.81;51.94;98581.59;104664;1257;61704;-68
2023/03/07 00:55:07;;;;;;;9.80;8.70;;;;;;;8.85;51.66;98583.30;104841;1252;61692;-68
2023/03/07 00:57:37;;;;;;;11.10;8.70;;;;;;;8.86;51.63;98579.38;104738;1257;73531;-68
2023/03/07 01:00:07;;;;;;;12.00;8.60;;;;;;;8.87;51.60;98577.95;104608;1261;69299;-67
2023/03/07 01:02:36;;;;;;;11.20;8.20;;;;;;;8.85;51.72;98577.34;104644;1253;71668;-67
2023/03/07 01:05:06;;;;;;;9.80;8.20;;;;;;;8.89;51.65;98572.77;104643;1258;61803;-68
2023/03/07 01:07:34;;;;;;;10.70;8.60;;;;;;;8.91;51.41;98569.02;104769;1253;61611;-67
2023/03/07 01:10:05;;;;;;;10.50;8.50;;;;;;;8.88;51.30;98564.98;104647;1254;75069;-68
2023/03/07 01:12:34;;;;;;;13.00;9.40;;;;;;;8.87;51.18;98563.61;104725;1253;69587;-67
2023/03/07 01:15:05;;;;;;;10.50;9.00;;;;;;;8.90;50.84;98557.17;104655;1254;72203;-68
2023/03/07 01:17:34;;;;;;;11.80;9.60;;;;;;;8.89;50.73;98551.77;104579;1256;61712;-67
2023/03/07 01:20:05;;;;;;;10.60;8.60;;;;;;;8.90;50.90;98547.20;104536;1269;60641;-66
2023/03/07 01:22:35;;;;;;;13.40;9.00;;;;;;;8.90;50.96;98544.95;104655;1266;73486;-68
2023/03/07 01:25:05;;;;;;;10.70;8.40;;;;;;;8.89;50.82;98544.08;104751;1263;69842;-67
2023/03/07 01:27:35;;;;;;;9.90;8.00;;;;;;;8.91;50.58;98536.86;104614;1254;71265;-67
2023/03/07 01:30:07;;;;;;;10.70;8.80;;;;;;;8.93;50.66;98532.14;104644;1256;61678;-67
2023/03/07 01:32:37;;;;;;;10.30;7.80;;;;;;;8.99;50.50;98529.29;104773;1253;61628;-67
2023/03/07 01:35:06;;;;;;;12.20;8.80;;;;;;;8.98;50.32;98525.96;104734;1269;72678;-67
2023/03/07 01:37:34;;;;;;;13.90;8.90;;;;;;;8.96;50.43;98525.05;104654;1254;69175;-67
2023/03/07 01:40:04;;;;;;;12.80;9.00;;;;;;;8.95;50.54;98518.27;104686;1251;71596;-67
2023/03/07 01:42:32;;;;;;;12.30;9.30;;;;;;;8.97;50.38;98515.71;104801;1250;61700;-67
2023/03/07 01:45:05;;;;;;;12.40;9.20;;;;;;;9.01;50.11;98515.00;104701;1251;61613;-67
2023/03/07 01:47:45;;;;;;;13.40;8.50;;;;;;;9.03;50.44;98512.44;104643;1256;72928;-67
2023/03/07 01:50:15;;;;;;;11.00;9.00;;;;;;;9.04;50.16;98512.18;104633;1256;70218;-68
2023/03/07 01:52:46;;;;;;;10.60;8.70;;;;;;;8.98;50.40;98512.19;104641;1251;71326;-66
2023/03/07 01:55:25;;;;;;;11.90;9.30;;;;;;;8.99;50.37;98509.16;104599;1253;61829;-66
2023/03/07 01:57:59;;;;;;;13.50;9.10;;;;;;;8.99;50.24;98506.16;104617;1252;61695;-67
2023/03/07 02:00:28;;;;;;;10.70;8.30;;;;;;;9.00;50.07;98507.21;104634;1254;72948;-66
2023/03/07 02:03:10;;;;;;;10.50;7.40;;;;;;;9.00;50.06;98502.96;104529;1251;68263;-66
2023/03/07 02:05:44;;;;;;;10.10;8.20;;;;;;;9.05;49.88;98503.08;104558;1257;72389;-68
2023/03/07 02:08:13;;;;;;;14.60;9.20;;;;;;;9.04;49.56;98497.49;104533;1263;61689;-68
2023/03/07 02:10:43;;;;;;;13.60;9.70;;;;;;;9.04;49.60;98489.48;104551;1250;61647;-66
2023/03/07 02:13:11;;;;;;;11.30;8.40;;;;;;;9.03;49.68;98486.03;104780;1250;73318;-66
2023/03/07 02:15:49;;;;;;;14.30;9.20;;;;;;;9.03;49.32;98487.81;104506;1251;68471;-66
2023/03/07 02:18:20;;;;;;;13.10;9.00;;;;;;;9.05;49.31;98486.96;104542;1250;73032;-66
2023/03/07 02:20:54;;;;;;;14.10;9.90;;;;;;;9.10;49.10;98484.77;104589;1251;61593;-67
2023/03/07 02:23:39;;;;;;;13.10;9.80;;;;;;;9.09;48.83;98487.63;104654;1251;61694;-68
2023/03/07 02:26:11;;;;;;;16.20;9.70;;;;;;;9.07;48.95;98484.61;104663;1257;73446;-70
2023/03/07 02:28:41;;;;;;;16.50;9.40;;;;;;;9.00;48.81;98480.61;104662;1253;68090;-69
2023/03/07 02:31:10;;;;;;;13.00;9.60;;;;;;;8.95;49.11;98478.60;104694;1256;72248;-69
2023/03/07 02:33:40;;;;;;;14.40;9.50;;;;;;;8.94;49.17;98477.23;104573;1254;62277;-69
2023/03/07 02:36:16;;;;;;;12.20;9.60;;;;;;;8.90;49.18;98478.53;104733;1255;61735;-70
2023/03/07 02:38:51;;;;;;;14.90;9.60;;;;;;;8.87;48.93;98475.54;104914;1253;74568;-70
2023/03/07 02:41:26;;;;;;;14.80;9.10;;;;;;;8.85;49.18;98475.15;104751;1251;71558;-70
2023/03/07 02:43:56;;;;;;;11.90;8.90;;;;;;;8.87;48.90;98472.75;104749;1253;73203;-70
2023/03/07 02:46:25;;;;;;;13.30;9.30;;;;;;;8.89;48.96;98471.60;104712;1251;61662;-70
2023/03/07 02:48:54;;;;;;;13.50;9.10;;;;;;;8.86;48.88;98468.61;105015;1252;62864;-70
2023/03/07 02:51:23;;;;;;;12.10;9.00;;;;;;;8.90;48.90;98463.80;105009;1269;74219;-69
2023/03/07 02:53:51;;;;;;;14.30;9.00;;;;;;;8.87;48.76;98462.42;104677;1257;68563;-69
2023/03/07 02:56:20;;;;;;;17.20;10.70;;;;;;;8.84;49.08;98459.97;104847;1253;71273;-70
2023/03/07 02:58:49;;;;;;;13.90;9.40;;;;;;;8.79;49.05;98459.03;104884;1262;61727;-69
2023/03/07 03:01:17;;;;;;;15.90;10.10;;;;;;;8.74;49.37;98452.83;104712;1255;63191;-71
2023/03/07 03:03:46;;;;;;;13.30;9.50;;;;;;;8.77;49.41;98447.41;104909;1258;74239;-69
2023/03/07 03:06:14;;;;;;;11.10;9.30;;;;;;;8.75;49.26;98448.59;105025;1252;68666;-69
2023/03/07 03:08:43;;;;;;;15.10;9.70;;;;;;;8.77;49.52;98451.77;104716;1266;73194;-69
2023/03/07 03:11:11;;;;;;;13.90;8.90;;;;;;;8.74;49.46;98454.57;104916;1253;61665;-69
2023/03/07 03:13:41;;;;;;;12.20;9.70;;;;;;;8.75;49.44;98451.56;104707;1251;61601;-69
2023/03/07 03:16:10;;;;;;;12.00;9.30;;;;;;;8.76;49.71;98448.38;104632;1256;74117;-69
2023/03/07 03:18:39;;;;;;;14.80;9.40;;;;;;;8.73;49.68;98448.65;104951;1252;69433;-70
2023/03/07 03:21:09;;;;;;;16.90;8.70;;;;;;;8.71;49.57;98446.52;104853;1267;72115;-70
2023/03/07 03:23:38;;;;;;;13.80;8.40;;;;;;;8.70;49.79;98448.52;104932;1251;61634;-70
2023/03/07 03:26:10;;;;;;;11.20;8.90;;;;;;;8.77;49.74;98446.71;104667;1267;61592;-71
2023/03/07 03:28:39;;;;;;;16.00;8.80;;;;;;;8.79;49.78;98445.21;104744;1256;73122;-70
2023/03/07 03:31:10;;;;;;;15.20;9.00;;;;;;;8.79;49.79;98445.92;105046;1250;70621;-69
2023/03/07 03:33:40;;;;;;;11.20;8.40;;;;;;;8.83;49.73;98444.63;104980;1253;71574;-69
2023/03/07 03:36:11;;;;;;;10.80;8.50;;;;;;;8.89;49.59;98444.13;104920;1251;61712;-70
2023/03/07 03:38:41;;;;;;;12.40;8.90;;;;;;;8.99;49.14;98438.91;104799;1252;61798;-70
2023/03/07 03:41:11;;;;;;;12.70;8.30;;;;;;;9.00;48.97;98435.15;104596;1253;74885;-70
2023/03/07 03:43:40;;;;;;;13.00;8.80;;;;;;;9.07;48.94;98434.06;104745;1256;70082;-70
2023/03/07 03:46:09;;;;;;;10.70;7.80;;;;;;;9.11;48.80;98433.67;104543;1257;73486;-70
2023/03/07 03:48:37;;;;;;;11.70;8.20;;;;;;;9.15;48.70;98436.39;104647;1266;61686;-69
2023/03/07 03:51:10;;;;;;;10.20;7.80;;;;;;;9.16;48.87;98436.38;104613;1253;62052;-69
2023/03/07 03:53:39;;;;;;;12.90;9.30;;;;;;;9.18;48.93;98440.63;104745;1253;73717;-69
2023/03/07 03:56:13;;;;;;;11.00;8.20;;;;;;;9.16;48.99;98436.00;104713;1274;68225;-69
2023/03/07 03:58:41;;;;;;;9.70;8.30;;;;;;;9.17;48.93;98435.59;104632;1256;71936;-70
2023/03/07 04:01:10;;;;;;;11.10;8.60;;;;;;;9.18;48.93;98433.27;104652;1254;61708;-69
2023/03/07 04:03:49;;;;;;;10.80;7.90;;;;;;;9.21;48.98;98436.09;104692;1263;61027;-69
2023/03/07 04:06:20;;;;;;;9.40;6.90;;;;;;;9.26;48.51;98435.64;104612;1253;73033;-70
2023/03/07 04:08:50;;;;;;;12.10;7.20;;;;;;;9.31;48.55;98435.35;104628;1259;70562;-70
2023/03/07 04:11:19;;;;;;;11.20;7.10;;;;;;;9.36;48.38;98434.17;104547;1256;71623;-71
2023/03/07 04:13:48;;;;;;;7.90;6.50;;;;;;;9.41;48.19;98434.41;104672;1253;61717;-71
2023/03/07 04:16:21;;;;;;;8.30;6.40;;;;;;;9.48;48.11;98438.90;104636;1256;61638;-70
2023/03/07 04:18:51;;;;;;;9.90;6.70;;;;;;;9.48;48.00;98434.39;104681;1264;74667;-71
2023/03/07 04:21:20;;;;;;;8.10;6.50;;;;;;;9.54;48.02;98425.66;104649;1275;69091;-70
2023/03/07 04:23:57;;;;;;;9.00;6.80;;;;;;;9.58;48.05;98430.65;104673;1252;71936;-71
2023/03/07 04:26:31;;;;;;;9.40;6.50;;;;;;;9.63;47.98;98424.41;104813;1257;62437;-71
2023/03/07 04:28:59;;;;;;;8.20;6.30;;;;;;;9.66;47.46;98424.94;104697;1254;61688;-71
2023/03/07 04:31:33;;;;;;;9.20;6.20;;;;;;;9.75;47.56;98424.61;104703;1255;72942;-70
2023/03/07 04:34:04;;;;;;;6.90;6.00;;;;;;;9.76;47.20;98421.73;104784;1256;70023;-71
2023/03/07 04:36:33;;;;;;;8.20;6.20;;;;;;;9.78;47.18;98422.32;104794;1254;71784;-70
2023/03/07 04:39:01;;;;;;;9.00;6.70;;;;;;;9.79;47.58;98423.31;104823;1256;61713;-70
2023/03/07 04:41:31;;;;;;;7.90;6.10;;;;;;;9.86;47.37;98424.82;104588;1269;61009;-70
2023/03/07 04:44:17;;;;;;;8.70;6.50;;;;;;;9.93;47.13;98424.96;104570;1264;74797;-64
2023/03/07 04:46:46;;;;;;;8.60;5.90;;;;;;;9.95;46.93;98423.73;104507;1253;68595;-64
2023/03/07 04:49:14;;;;;;;8.50;6.60;;;;;;;9.93;46.74;98420.88;104593;1256;72232;-65
2023/03/07 04:51:43;;;;;;;7.60;5.60;;;;;;;10.00;46.88;98419.80;104560;1254;61786;-65
2023/03/07 04:54:14;;;;;;;8.20;6.30;;;;;;;10.02;46.52;98415.14;104459;1255;61692;-65
2023/03/07 04:56:43;;;;;;;7.60;6.10;;;;;;;10.03;46.40;98405.79;104568;1256;74122;-65
2023/03/07 04:59:12;;;;;;;7.80;6.00;;;;;;;10.06;46.56;98405.75;104617;1258;70758;-66
2023/03/07 05:01:41;;;;;;;7.00;5.70;;;;;;;10.07;46.09;98402.54;104493;1263;72895;-66
2023/03/07 05:04:10;;;;;;;8.30;6.40;;;;;;;10.14;45.91;98399.15;104459;1253;61708;-65
2023/03/07 05:06:41;;;;;;;7.60;6.10;;;;;;;10.16;46.23;98399.26;104645;1252;61679;-66
2023/03/07 05:09:10;;;;;;;8.90;6.30;;;;;;;10.14;46.01;98400.91;104544;1254;75376;-65
2023/03/07 05:11:39;;;;;;;7.60;6.40;;;;;;;10.12;46.12;98404.92;104523;1254;68370;-66
2023/03/07 05:14:08;;;;;;;7.50;6.70;;;;;;;10.18;45.81;98402.77;104601;1254;71663;-65
2023/03/07 05:16:37;;;;;;;8.30;6.70;;;;;;;10.26;45.80;98401.77;104589;1254;61764;-66
2023/03/07 05:19:05;;;;;;;9.00;6.60;;;;;;;10.26;45.96;98409.27;104462;1255;61775;-65
2023/03/07 05:21:34;;;;;;;7.30;6.10;;;;;;;10.31;45.96;98410.56;104734;1256;72489;-66
2023/03/07 05:24:06;;;;;;;9.50;6.60;;;;;;;10.29;45.57;98417.52;104534;1253;69190;-66
2023/03/07 05:26:36;;;;;;;7.60;6.40;;;;;;;10.15;46.14;98417.64;104723;1266;71077;-66
2023/03/07 05:29:04;;;;;;;7.20;6.00;;;;;;;10.11;45.88;98424.36;104629;1252;61676;-66
2023/03/07 05:31:34;;;;;;;8.30;6.60;;;;;;;9.98;46.33;98428.10;108775;1252;59502;-67
2023/03/07 05:34:07;;;;;;;8.10;6.60;;;;;;;9.94;46.64;98430.46;107178;1254;73436;-68
2023/03/07 05:36:36;;;;;;;9.00;6.60;;;;;;;10.05;46.35;98431.95;104585;1272;69700;-70
2023/03/07 05:39:04;;;;;;;8.70;6.30;;;;;;;9.90;46.18;98427.56;104564;1253;71812;-62
2023/03/07 05:41:35;;;;;;;9.20;6.90;;;;;;;9.85;46.44;98427.85;104689;1256;61823;-67
2023/03/07 05:44:04;;;;;;;9.90;7.10;;;;;;;9.80;46.63;98428.50;104544;1256;62177;-65
2023/03/07 05:46:33;;;;;;;8.90;7.10;;;;;;;9.82;46.96;98425.96;104675;1254;74366;-73
2023/03/07 05:49:03;;;;;;;8.80;7.20;;;;;;;9.64;47.71;98434.66;104769;1254;69112;-66
2023/03/07 05:51:31;;;;;;;9.80;7.20;;;;;;;9.49;56.54;98432.91;104614;1252;71411;-65
2023/03/07 05:54:00;;;;;;;9.40;6.90;;;;;;;9.52;53.14;98433.63;104681;1256;61708;-67
2023/03/07 05:56:29;;;;;;;10.90;7.50;;;;;;;9.59;52.15;98438.12;104696;1254;62285;-67
2023/03/07 05:58:57;;;;;;;9.30;7.90;;;;;;;9.62;54.79;98437.09;104618;1258;72365;-68
2023/03/07 06:01:27;;;;;;;10.40;7.90;;;;;;;9.57;55.79;98432.61;104828;1254;69569;-67
2023/03/07 06:03:57;;;;;;;10.80;7.80;;;;;;;-100.54;13.73;19685.39;101828;1264;1003911;-66
2023/03/07 06:06:25;;;;;;;11.00;7.50;;;;;;;-128.00;-1.00;-1.00;101224;1251;1043756;-67
2023/03/07 06:08:55;;;;;;;9.10;7.10;;;;;;;-128.00;-1.00;-1.00;101040;1254;1045865;-65
2023/03/07 06:11:23;;;;;;;10.50;7.50;;;;;;;-128.00;-1.00;-1.00;101137;1256;1060875;-66
2023/03/07 06:13:58;;;;;;;9.10;7.20;;;;;;;-128.00;-1.00;-1.00;101076;1253;1057529;-62
2023/03/07 06:16:28;;;;;;;10.40;7.20;;;;;;;-128.00;-1.00;-1.00;100860;1256;1060615;-64
2023/03/07 06:18:59;;;;;;;10.30;7.50;;;;;;;-128.00;-1.00;-1.00;101035;1256;1043617;-64
2023/03/07 06:21:29;;;;;;;8.70;7.20;;;;;;;-128.00;-1.00;-1.00;101028;1257;1047926;-63
2023/03/07 06:23:58;;;;;;;11.40;7.00;;;;;;;-128.00;-1.00;-1.00;101115;1254;1062268;-64
2023/03/07 06:26:26;;;;;;;7.00;6.30;;;;;;;-128.00;-1.00;-1.00;101630;1259;1057796;-64
2023/03/07 06:28:56;;;;;;;10.10;6.70;;;;;;;-128.00;-1.00;-1.00;102023;1252;1012449;-64
2023/03/07 06:31:25;;;;;;;7.20;6.50;;;;;;;-128.00;-1.00;-1.00;101902;1256;1012782;-66
2023/03/07 06:33:54;;;;;;;8.30;6.50;;;;;;;-128.00;-1.00;-1.00;102142;1255;1011350;-64
2023/03/07 06:36:25;;;;;;;10.20;7.50;;;;;;;-128.00;-1.00;-1.00;102155;1257;1013184;-64
2023/03/07 06:38:59;;;;;;;7.50;6.50;;;;;;;-128.00;-1.00;-1.00;102162;1257;1012474;-64
2023/03/07 06:41:28;;;;;;;7.10;6.40;;;;;;;-128.00;-1.00;-1.00;102355;1256;1013060;-65
2023/03/07 06:43:58;;;;;;;8.70;7.00;;;;;;;-128.00;-1.00;-1.00;102113;1251;1010673;-63
2023/03/07 06:46:30;;;;;;;11.20;8.10;;;;;;;-128.00;-1.00;-1.00;102111;1251;1013658;-65
2023/03/07 06:49:03;;;;;;;8.90;7.00;;;;;;;-128.00;-1.00;-1.00;102008;1250;1015559;-64
2023/03/07 06:51:32;;;;;;;8.10;7.20;;;;;;;-128.00;-1.00;-1.00;102371;1251;1012106;-65
2023/03/07 06:54:08;;;;;;;10.10;8.00;;;;;;;-128.00;-1.00;-1.00;102080;1257;1015335;-65
2023/03/07 06:56:36;;;;;;;8.30;7.30;;;;;;;-128.00;-1.00;-1.00;101897;1250;1009676;-67
2023/03/07 06:59:05;;;;;;;9.10;7.50;;;;;;;-128.00;-1.00;-1.00;102088;1255;1010876;-66
2023/03/07 07:01:34;;;;;;;11.10;6.80;;;;;;;-128.00;-1.00;-1.00;102375;1250;1012956;-70
2023/03/07 07:04:04;;;;;;;8.40;6.00;;;;;;;-128.00;-1.00;-1.00;101957;1251;1013337;-68
2023/03/07 07:06:37;;;;;;;9.20;6.80;;;;;;;-128.00;-1.00;-1.00;102382;1250;1013047;-67
2023/03/07 07:09:05;;;;;;;8.90;6.60;;;;;;;-128.00;-1.00;-1.00;102436;1253;1013198;-67
2023/03/07 07:11:37;;;;;;;8.20;7.20;;;;;;;-128.00;-1.00;-1.00;102432;1251;1011136;-65
2023/03/07 07:14:09;;;;;;;7.80;7.00;;;;;;;-128.00;-1.00;-1.00;102156;1254;1013204;-66
2023/03/07 07:16:38;;;;;;;9.20;7.20;;;;;;;-128.00;-1.00;-1.00;101817;1251;1013928;-65
2023/03/07 07:19:08;;;;;;;9.30;7.10;;;;;;;-128.00;-1.00;-1.00;102424;1251;1015521;-66
2023/03/07 07:21:37;;;;;;;8.50;7.30;;;;;;;-128.00;-1.00;-1.00;102266;1255;1011106;-66
2023/03/07 07:24:06;;;;;;;12.00;8.30;;;;;;;-128.00;-1.00;-1.00;102559;1251;1013973;-66
2023/03/07 07:26:35;;;;;;;9.40;6.80;;;;;;;-128.00;-1.00;-1.00;102464;1253;1013112;-67
2023/03/07 07:29:03;;;;;;;7.60;6.90;;;;;;;-128.00;-1.00;-1.00;102226;1251;1012904;-67
2023/03/07 07:31:32;;;;;;;8.90;7.00;;;;;;;-128.00;-1.00;-1.00;102378;1251;1012977;-67
2023/03/07 07:34:01;;;;;;;8.70;6.90;;;;;;;-128.00;-1.00;-1.00;102132;1257;1010863;-66
2023/03/07 07:36:31;;;;;;;6.80;6.00;;;;;;;-128.00;-1.00;-1.00;102171;1261;1011065;-70
2023/03/07 07:39:04;;;;;;;6.90;5.80;;;;;;;-128.00;-1.00;-1.00;102297;1251;1015362;-66
2023/03/07 07:41:33;;;;;;;7.00;6.30;;;;;;;-128.00;-1.00;-1.00;102263;1254;1012798;-66
2023/03/07 07:44:02;;;;;;;9.00;5.90;;;;;;;-128.00;-1.00;-1.00;102295;1255;1015572;-67
2023/03/07 07:46:39;;;;;;;8.20;6.20;;;;;;;-128.00;-1.00;-1.00;102357;1251;1012261;-64
2023/03/07 07:49:08;;;;;;;7.60;6.40;;;;;;;-128.00;-1.00;-1.00;102214;1256;1010970;-64
2023/03/07 07:51:39;;;;;;;8.00;6.50;;;;;;;-128.00;-1.00;-1.00;102269;1263;1012563;-66
2023/03/07 07:54:08;;;;;;;8.10;6.70;;;;;;;-128.00;-1.00;-1.00;101935;1256;1016125;-64
2023/03/07 07:56:37;;;;;;;10.40;6.20;;;;;;;-128.00;-1.00;-1.00;102426;1251;1013669;-64
2023/03/07 07:59:05;;;;;;;6.50;5.80;;;;;;;-128.00;-1.00;-1.00;102258;1254;1010550;-67
2023/03/07 08:01:34;;;;;;;8.20;6.30;;;;;;;-128.00;-1.00;-1.00;102686;1258;1011473;-67
2023/03/07 08:04:03;;;;;;;6.70;6.00;;;;;;;-128.00;-1.00;-1.00;102410;1251;1012771;-62
2023/03/07 08:06:32;;;;;;;7.30;6.50;;;;;;;-128.00;-1.00;-1.00;102225;1256;1015785;-69
2023/03/07 08:09:00;;;;;;;8.40;7.00;;;;;;;-128.00;-1.00;-1.00;102307;1254;1014966;-65
2023/03/07 08:11:33;;;;;;;7.60;6.60;;;;;;;-128.00;-1.00;-1.00;102400;1253;1012226;-65
2023/03/07 08:14:03;;;;;;;7.10;6.40;;;;;;;-128.00;-1.00;-1.00;102200;1251;1012378;-66
2023/03/07 08:16:32;;;;;;;7.50;6.60;;;;;;;-128.00;-1.00;-1.00;102059;1254;1012929;-67
2023/03/07 08:19:00;;;;;;;7.30;6.20;;;;;;;-128.00;-1.00;-1.00;101980;1254;1015802;-67
2023/03/07 08:21:29;;;;;;;8.20;7.00;;;;;;;-128.00;-1.00;-1.00;101910;1251;1013454;-67
2023/03/07 08:23:58;;;;;;;8.10;6.80;;;;;;;-128.00;-1.00;-1.00;101901;1251;1012310;-66
2023/03/07 08:26:30;;;;;;;7.60;6.60;;;;;;;-128.00;-1.00;-1.00;101971;1254;1011610;-64
2023/03/07 08:28:59;;;;;;;8.50;6.00;;;;;;;-128.00;-1.00;-1.00;101914;1255;1016079;-65
2023/03/07 08:31:27;;;;;;;8.40;6.80;;;;;;;-128.00;-1.00;-1.00;101938;1254;1014948;-70
2023/03/07 08:33:56;;;;;;;7.50;6.70;;;;;;;-128.00;-1.00;-1.00;102024;1254;1012877;-70
2023/03/07 08:36:25;;;;;;;7.10;6.40;;;;;;;-128.00;-1.00;-1.00;102134;1250;1012719;-68
2023/03/07 08:38:58;;;;;;;7.30;6.30;;;;;;;-128.00;-1.00;-1.00;102458;1253;1010976;-69
2023/03/07 08:41:27;;;;;;;7.20;5.80;;;;;;;-128.00;-1.00;-1.00;102049;1251;1012180;-69
2023/03/07 08:43:56;;;;;;;7.60;6.30;;;;;;;-128.00;-1.00;-1.00;102320;1251;1012632;-68
2023/03/07 08:46:25;;;;;;;6.50;5.90;;;;;;;-128.00;-1.00;-1.00;102174;1251;1013507;-68
2023/03/07 08:48:54;;;;;;;10.60;6.90;;;;;;;-128.00;-1.00;-1.00;102445;1253;1009882;-69
2023/03/07 08:51:27;;;;;;;7.40;6.40;;;;;;;-128.00;-1.00;-1.00;101925;1254;1014327;-69
2023/03/07 08:55:10;;;;;;;6.90;6.20;;;;;;;10.75;83.62;98412.36;101948;1289;619304;-68
2023/03/07 08:57:38;;;;;;;6.90;6.30;;;;;;;11.66;70.88;98414.06;104266;1265;60483;-69
2023/03/07 09:00:08;;;;;;;7.30;6.70;;;;;;;11.69;69.75;98408.48;104505;1264;60456;-69
2023/03/07 09:02:35;;;;;;;6.70;6.00;;;;;;;11.54;70.25;98405.89;104361;1263;72336;-70
2023/03/07 09:05:03;;;;;;;7.00;6.20;;;;;;;11.72;70.07;98406.32;104721;1263;70146;-70
2023/03/07 09:07:30;;;;;;;7.00;6.00;;;;;;;11.74;70.87;98407.40;104388;1267;169433;-71
2023/03/07 09:09:58;;;;;;;6.90;5.90;;;;;;;11.72;71.06;98409.80;104772;1257;60479;-69
2023/03/07 09:12:26;;;;;;;6.90;6.30;;;;;;;11.55;71.34;98417.08;104651;1257;60427;-72
2023/03/07 09:14:53;;;;;;;6.40;5.80;;;;;;;11.59;70.68;98419.61;104717;1259;72207;-69
2023/03/07 09:17:21;;;;;;;6.90;6.20;;;;;;;11.55;70.32;98423.36;104801;1254;70176;-69
2023/03/07 09:19:49;;;;;;;8.50;6.80;;;;;;;11.38;72.41;98426.95;104654;1260;71789;-68
2023/03/07 09:22:16;;;;;;;7.60;6.90;;;;;;;11.39;71.53;98430.61;104652;1258;60748;-66
2023/03/07 09:24:44;;;;;;;8.40;7.60;;;;;;;11.26;71.28;98430.90;104661;1254;60840;-66
2023/03/07 09:27:11;;;;;;;7.00;6.30;;;;;;;11.20;71.51;98434.44;104710;1257;72610;-64
2023/03/07 09:29:38;;;;;;;7.90;7.10;;;;;;;11.08;71.59;98437.30;104589;1254;69009;-64
2023/03/07 09:32:06;;;;;;;8.00;7.20;;;;;;;11.24;70.67;98436.81;104466;1253;71529;-68
2023/03/07 09:34:34;;;;;;;7.60;6.80;;;;;;;11.40;71.39;98438.08;108778;1253;58868;-64
2023/03/07 09:37:02;;;;;;;7.40;6.70;;;;;;;11.50;71.48;98433.94;108790;1252;59085;-64
2023/03/07 09:39:37;;;;;;;8.40;7.50;;;;;;;11.40;70.91;98439.84;105449;1253;73256;-63
2023/03/07 09:42:19;;;;;;;7.30;6.60;;;;;;;11.47;69.13;98440.77;104539;1257;68973;-64
2023/03/07 09:44:54;;;;;;;9.00;7.10;;;;;;;11.52;69.01;98443.23;104908;1254;72750;-65
2023/03/07 09:48:02;;;;;;;8.40;7.40;;;;;;;11.56;71.00;98442.80;104861;1254;60876;-65
2023/03/07 09:50:47;;;;;;;8.10;7.30;;;;;;;11.94;66.63;98446.27;104442;1254;60799;-66
2023/03/07 09:53:21;;;;;;;11.00;8.70;;;;;;;11.85;70.48;98448.43;104834;1254;73493;-65
2023/03/07 09:55:50;;;;;;;9.00;8.10;;;;;;;11.85;67.24;98450.24;104664;1253;68205;-65
2023/03/07 09:58:20;;;;;;;9.00;8.00;;;;;;;11.73;64.43;98451.70;105007;1253;71209;-66
2023/03/07 10:00:51;;;;;;;10.00;9.00;;;;;;;11.53;65.36;98451.61;104733;1252;61009;-64
2023/03/07 10:03:32;;;;;;;10.50;8.60;;;;;;;11.84;62.92;98447.85;105115;1253;61113;-63
2023/03/07 10:06:08;;;;;;;9.30;8.20;;;;;;;11.62;59.82;98442.79;104811;1256;71716;-64
2023/03/07 10:08:36;;;;;;;10.40;8.30;;;;;;;11.92;59.54;98436.44;105132;1253;69883;-65
2023/03/07 10:11:22;;;;;;;9.00;8.10;;;;;;;11.99;58.04;98432.40;104930;1255;72478;-67
2023/03/07 10:14:12;;;;;;;10.10;8.30;;;;;;;11.98;58.32;98429.86;104746;1253;60891;-63
2023/03/07 10:16:49;;;;;;;9.30;7.60;;;;;;;11.96;59.47;98424.38;105225;1256;60844;-63
2023/03/07 10:19:28;;;;;;;9.60;8.50;;;;;;;12.00;57.84;98426.09;104876;1256;72481;-63
2023/03/07 10:22:18;;;;;;;10.40;9.30;;;;;;;11.78;56.53;98416.27;105023;1253;68429;-62
2023/03/07 10:24:54;;;;;;;9.00;8.20;;;;;;;11.98;55.25;98409.48;104925;1254;74015;-62
2023/03/07 10:27:25;;;;;;;8.40;7.50;;;;;;;12.31;55.28;98408.09;105238;1254;60940;-62
2023/03/07 10:29:54;;;;;;;9.20;8.20;;;;;;;12.40;54.04;98410.98;105063;1254;60769;-63
2023/03/07 10:32:22;;;;;;;13.90;8.40;;;;;;;12.58;54.72;98408.14;104877;1256;73582;-63
2023/03/07 10:34:54;;;;;;;9.40;8.50;;;;;;;12.80;53.62;98407.65;104788;1260;70033;-61
2023/03/07 10:37:26;;;;;;;9.70;8.60;;;;;;;12.41;53.61;98411.27;104564;1257;73014;-62
2023/03/07 10:39:55;;;;;;;10.20;8.10;;;;;;;12.68;52.75;98405.50;104712;1257;61556;-61
2023/03/07 10:42:23;;;;;;;10.50;8.00;;;;;;;12.51;50.48;98403.39;105032;1257;60888;-62
2023/03/07 10:44:50;;;;;;;8.80;7.90;;;;;;;12.61;50.08;98402.67;105362;1254;73750;-63
2023/03/07 10:47:22;;;;;;;9.80;7.70;;;;;;;12.68;49.95;98401.98;104532;1254;69074;-62
2023/03/07 10:49:51;;;;;;;8.30;7.50;;;;;;;12.56;49.95;98405.50;104804;1253;72800;-62
2023/03/07 10:52:47;;;;;;;9.00;8.00;;;;;;;12.53;50.01;98403.59;105174;1252;60868;-63
2023/03/07 10:55:33;;;;;;;8.60;7.70;;;;;;;12.48;48.98;98403.45;104740;1257;60817;-62
2023/03/07 10:58:18;;;;;;;7.90;7.10;;;;;;;12.35;50.88;98400.81;104745;1253;73573;-64
2023/03/07 11:01:05;;;;;;;9.30;7.80;;;;;;;12.52;48.74;98400.16;105034;1254;69625;-63
2023/03/07 11:03:39;;;;;;;9.00;7.20;;;;;;;12.60;48.86;98395.55;104716;1256;72357;-70
2023/03/07 11:06:33;;;;;;;8.80;6.60;;;;;;;12.87;48.69;98391.48;105519;1255;60733;-62
2023/03/07 11:09:27;;;;;;;6.70;6.00;;;;;;;12.91;47.71;98390.52;105077;1257;60760;-61
2023/03/07 11:12:03;;;;;;;7.00;5.60;;;;;;;13.08;47.71;98388.64;104747;1256;72509;-61
2023/03/07 11:15:10;;;;;;;7.50;6.60;;;;;;;13.24;46.88;98388.30;104869;1254;68169;-61
2023/03/07 11:17:44;;;;;;;;;;;;;;;13.11;46.91;98389.45;104876;1262;72309;-63
2023/03/07 11:20:28;;;;;;;7.00;6.30;;;;;;;13.07;46.72;98389.01;105057;1256;60874;-63
2023/03/07 11:23:15;;;;;;;7.10;6.10;;;;;;;13.22;47.46;98388.11;104720;1257;61231;-62
2023/03/07 11:25:43;;;;;;;6.80;6.10;;;;;;;13.28;47.08;98389.23;104726;1252;73619;-63
2023/03/07 11:28:32;;;;;;;8.10;6.90;;;;;;;13.21;44.63;98388.67;104832;1256;68236;-63
2023/03/07 11:31:18;;;;;;;7.60;6.80;;;;;;;12.99;44.60;98389.77;104745;1256;72040;-62
2023/03/07 11:34:05;;;;;;;7.00;6.20;;;;;;;13.24;44.74;98389.53;104594;1253;60789;-62
2023/03/07 11:36:35;;;;;;;7.40;6.70;;;;;;;13.03;43.79;98385.64;104960;1254;60894;-61
2023/03/07 11:39:30;;;;;;;7.00;6.30;;;;;;;13.16;44.39;98389.08;104670;1253;73070;-62
2023/03/07 11:42:07;;;;;;;6.30;5.60;;;;;;;13.21;43.91;98385.54;104878;1254;69512;-63
2023/03/07 11:44:53;;;;;;;7.20;6.40;;;;;;;13.21;44.21;98390.30;105039;1261;71543;-63